createdAt,value
2023-01-10T00:01:14.337Z,98239.62
2023-01-10T00:08:05.613Z,98249.37
2023-01-10T00:14:55.986Z,98251.27
2023-01-10T00:21:47.354Z,98257.49
2023-01-10T00:28:39.464Z,98266.45
2023-01-10T00:35:29.985Z,98269.82
2023-01-10T00:42:33.608Z,98269.27
2023-01-10T00:53:37.511Z,98282.02
2023-01-10T01:00:22.468Z,98286.38
2023-01-10T01:07:07.437Z,98275.14
2023-01-10T01:13:58.491Z,98279.48
2023-01-10T01:20:43.824Z,98303.25
2023-01-10T01:27:29.698Z,98271.97
2023-01-10T01:34:14.864Z,98278.14
2023-01-10T01:41:29.394Z,98301.41
2023-01-10T01:48:23.512Z,98288.43
2023-01-10T01:55:14.523Z,98293.56
2023-01-10T02:02:07.543Z,98292.48
2023-01-10T02:08:59.190Z,98294.22
2023-01-10T02:15:51.752Z,98303.40
2023-01-10T02:22:54.836Z,98310.35
2023-01-10T02:29:48.727Z,98302.58
2023-01-10T02:36:33.580Z,98313.61
2023-01-10T02:43:26.534Z,98328.83
2023-01-10T02:50:26.722Z,98323.42
2023-01-10T02:57:27.811Z,98333.38
2023-01-10T03:04:30.861Z,98331.88
2023-01-10T03:15:53.069Z,98321.44
2023-01-10T03:22:44.576Z,98326.09
2023-01-10T03:29:46.025Z,98340.80
2023-01-10T03:41:04.675Z,98350.77
2023-01-10T03:47:55.684Z,98356.75
2023-01-10T03:54:47.635Z,98358.04
2023-01-10T04:01:38.957Z,98364.01
2023-01-10T04:08:29.786Z,98361.08
2023-01-10T04:15:22.874Z,98370.14
2023-01-10T04:22:08.138Z,98389.08
2023-01-10T04:29:00.030Z,98377.70
2023-01-10T04:35:51.220Z,98384.98
2023-01-10T04:42:43.019Z,98371.96
2023-01-10T04:49:33.901Z,98375.94
2023-01-10T04:56:25.977Z,98375.17
2023-01-10T05:03:20.442Z,98390.21
2023-01-10T05:10:13.824Z,98395.41
2023-01-10T05:13:40.639Z,98392.00
2023-01-10T05:20:33.777Z,98413.77
2023-01-10T05:27:27.732Z,98410.29
2023-01-10T05:34:21.861Z,98420.98
2023-01-10T05:41:16.856Z,98417.27
2023-01-10T05:48:10.954Z,98427.27
2023-01-10T05:54:54.798Z,98426.64
2023-01-10T06:01:41.855Z,98440.98
2023-01-10T06:10:57.715Z,98444.85
2023-01-10T06:13:24.569Z,98449.58
2023-01-10T06:15:51.250Z,98438.21
2023-01-10T06:18:18.253Z,98453.23
2023-01-10T06:20:51.376Z,98452.61
2023-01-10T06:23:18.405Z,98448.06
2023-01-10T06:25:49.738Z,98446.53
2023-01-10T06:28:16.679Z,98455.55
2023-01-10T06:30:43.795Z,98456.75
2023-01-10T06:33:10.850Z,98470.52
2023-01-10T06:35:38.055Z,98462.05
2023-01-10T06:38:06.021Z,98468.70
2023-01-10T06:40:33.055Z,98468.57
2023-01-10T06:43:00.378Z,98465.52
2023-01-10T06:45:27.469Z,98462.14
2023-01-10T06:47:55.271Z,98468.25
2023-01-10T06:50:23.373Z,98470.11
2023-01-10T06:53:17.557Z,98471.99
2023-01-10T06:55:44.465Z,98464.52
2023-01-10T06:58:11.551Z,98476.73
2023-01-10T07:00:58.673Z,98471.98
2023-01-10T07:03:25.760Z,98478.16
2023-01-10T07:05:52.529Z,98472.95
2023-01-10T07:08:19.418Z,98477.02
2023-01-10T07:10:46.264Z,98471.20
2023-01-10T07:13:13.295Z,98472.17
2023-01-10T07:18:25.033Z,98469.30
2023-01-10T07:20:51.808Z,98475.96
2023-01-10T07:23:18.910Z,98472.02
2023-01-10T07:28:53.249Z,98474.15
2023-01-10T07:31:20.730Z,98478.61
2023-01-10T07:33:47.960Z,98475.34
2023-01-10T07:36:39.529Z,98473.45
2023-01-10T07:39:06.701Z,98480.25
2023-01-10T07:41:33.540Z,98483.47
2023-01-10T07:44:01.637Z,98473.31
2023-01-10T07:46:28.508Z,98481.15
2023-01-10T07:48:55.512Z,98482.13
2023-01-10T07:51:22.547Z,98482.11
2023-01-10T07:53:49.405Z,98487.74
2023-01-10T07:56:19.325Z,98479.79
2023-01-10T07:58:46.527Z,98478.77
2023-01-10T08:01:13.591Z,98475.73
2023-01-10T08:03:40.669Z,98474.41
2023-01-10T08:06:10.423Z,98486.19
2023-01-10T08:08:37.456Z,98482.97
2023-01-10T08:11:04.666Z,98484.39
2023-01-10T08:13:35.023Z,98486.14
2023-01-10T08:16:21.933Z,98478.02
2023-01-10T08:19:13.849Z,98484.48
2023-01-10T08:21:41.504Z,98479.27
2023-01-10T08:24:09.094Z,98487.63
2023-01-10T08:26:36.049Z,98482.69
2023-01-10T08:29:03.000Z,98485.21
2023-01-10T08:31:30.001Z,98489.89
2023-01-10T08:33:57.052Z,98498.34
2023-01-10T08:36:24.495Z,98486.23
2023-01-10T08:38:53.692Z,98490.77
2023-01-10T08:41:20.871Z,98492.46
2023-01-10T08:43:52.234Z,98499.90
2023-01-10T08:46:41.169Z,98496.46
2023-01-10T08:49:09.371Z,98500.97
2023-01-10T08:51:36.213Z,98505.16
2023-01-10T08:54:06.476Z,98516.08
2023-01-10T08:56:33.401Z,98517.41
2023-01-10T08:59:00.384Z,98513.63
2023-01-10T09:01:27.473Z,98507.16
2023-01-10T09:03:54.501Z,98512.67
2023-01-10T09:06:24.581Z,98508.51
2023-01-10T09:08:51.629Z,98502.12
2023-01-10T09:11:18.775Z,98503.30
2023-01-10T09:13:48.843Z,98503.18
2023-01-10T09:16:15.611Z,98513.41
2023-01-10T09:18:42.511Z,98513.42
2023-01-10T09:21:09.385Z,98516.82
2023-01-10T09:23:37.266Z,98515.28
2023-01-10T09:26:04.342Z,98525.75
2023-01-10T09:28:31.587Z,98522.86
2023-01-10T09:30:58.623Z,98522.50
2023-01-10T09:33:28.086Z,98529.25
2023-01-10T09:35:57.798Z,98522.01
2023-01-10T09:38:25.008Z,98521.55
2023-01-10T09:41:12.563Z,98518.77
2023-01-10T09:44:01.102Z,98514.49
2023-01-10T09:46:47.650Z,98510.79
2023-01-10T09:49:23.686Z,98512.86
2023-01-10T09:51:51.217Z,98512.72
2023-01-10T09:54:32.250Z,98504.31
2023-01-10T09:56:59.730Z,98505.62
2023-01-10T09:59:27.249Z,98500.39
2023-01-10T10:02:02.668Z,98503.66
2023-01-10T10:04:36.474Z,98503.90
2023-01-10T10:07:04.409Z,98500.59
2023-01-10T10:09:31.811Z,98500.16
2023-01-10T10:12:07.902Z,98505.48
2023-01-10T10:14:48.071Z,98509.43
2023-01-10T10:17:15.046Z,98502.70
2023-01-10T10:20:05.313Z,98497.06
2023-01-10T10:22:32.254Z,98504.30
2023-01-10T10:25:15.322Z,98507.16
2023-01-10T10:27:52.241Z,98501.56
2023-01-10T10:30:19.369Z,98498.98
2023-01-10T10:32:53.479Z,98498.98
2023-01-10T10:35:25.061Z,98500.70
2023-01-10T10:37:52.943Z,98490.66
2023-01-10T10:40:20.910Z,98497.55
2023-01-10T10:42:57.241Z,98494.45
2023-01-10T10:45:39.912Z,98492.84
2023-01-10T10:48:15.907Z,98490.59
2023-01-10T10:50:49.760Z,98481.02
2023-01-10T10:53:19.266Z,98495.63
2023-01-10T10:55:58.851Z,98485.80
2023-01-10T10:58:30.888Z,98485.15
2023-01-10T11:00:58.725Z,98492.20
2023-01-10T11:03:25.787Z,98500.41
2023-01-10T11:05:55.766Z,98498.75
2023-01-10T11:08:23.787Z,98506.71
2023-01-10T11:10:54.903Z,98501.64
2023-01-10T11:13:30.851Z,98505.53
2023-01-10T11:15:57.935Z,98522.48
2023-01-10T11:18:25.971Z,98531.94
2023-01-10T11:20:53.010Z,98545.29
2023-01-10T11:23:26.651Z,98544.23
2023-01-10T11:25:53.751Z,98547.61
2023-01-10T11:28:24.307Z,98553.91
2023-01-10T11:30:52.060Z,98558.02
2023-01-10T11:33:22.476Z,98556.66
2023-01-10T11:36:00.672Z,98560.55
2023-01-10T11:38:30.434Z,98561.71
2023-01-10T11:41:01.953Z,98570.30
2023-01-10T11:43:48.955Z,98571.17
2023-01-10T11:46:16.744Z,98569.20
2023-01-10T11:51:34.483Z,98574.16
2023-01-10T11:54:02.340Z,98578.94
2023-01-10T11:56:30.118Z,98582.63
2023-01-10T11:58:57.667Z,98588.41
2023-01-10T12:01:36.576Z,98585.57
2023-01-10T12:04:03.765Z,98587.77
2023-01-10T12:06:30.824Z,98580.13
2023-01-10T12:08:58.370Z,98583.86
2023-01-10T12:11:31.536Z,98578.13
2023-01-10T12:14:02.273Z,98583.39
2023-01-10T12:16:50.064Z,98582.88
2023-01-10T12:19:17.188Z,98587.75
2023-01-10T12:21:44.773Z,98590.41
2023-01-10T12:24:25.181Z,98596.34
2023-01-10T12:26:53.997Z,98600.73
2023-01-10T12:29:34.077Z,98608.23
2023-01-10T12:32:00.985Z,98613.66
2023-01-10T12:34:52.675Z,98609.09
2023-01-10T12:37:45.860Z,98612.62
2023-01-10T12:40:19.949Z,98609.55
2023-01-10T12:43:11.539Z,98612.40
2023-01-10T12:45:43.171Z,98609.15
2023-01-10T12:48:13.464Z,98606.95
2023-01-10T12:50:44.378Z,98606.96
2023-01-10T12:53:14.353Z,98613.39
2023-01-10T12:55:42.277Z,98618.52
2023-01-10T12:58:28.775Z,98606.36
2023-01-10T13:00:57.623Z,98609.14
2023-01-10T13:03:28.927Z,98612.94
2023-01-10T13:06:00.155Z,98615.87
2023-01-10T13:08:33.826Z,98617.92
2023-01-10T13:11:24.159Z,98615.28
2023-01-10T13:14:03.815Z,98613.48
2023-01-10T13:16:30.815Z,98615.59
2023-01-10T13:19:21.640Z,98619.23
2023-01-10T13:21:48.687Z,98628.48
2023-01-10T13:24:15.539Z,98631.40
2023-01-10T13:26:46.383Z,98632.13
2023-01-10T13:29:15.566Z,98630.14
2023-01-10T13:31:42.612Z,98630.65
2023-01-10T13:34:13.454Z,98632.86
2023-01-10T13:37:00.774Z,98637.60
2023-01-10T13:39:30.317Z,98643.70
2023-01-10T13:42:17.981Z,98648.11
2023-01-10T13:45:15.367Z,98642.67
2023-01-10T13:47:48.647Z,98645.88
2023-01-10T13:50:22.820Z,98659.05
2023-01-10T13:53:12.719Z,98663.48
2023-01-10T13:55:39.714Z,98660.94
2023-01-10T13:58:09.837Z,98660.08
2023-01-10T14:00:55.481Z,98671.94
2023-01-10T14:03:41.733Z,98670.25
2023-01-10T14:06:29.107Z,98667.90
2023-01-10T14:08:57.092Z,98665.70
2023-01-10T14:11:25.675Z,98664.52
2023-01-10T14:13:53.823Z,98670.45
2023-01-10T14:16:34.231Z,98672.33
2023-01-10T14:19:02.175Z,98672.02
2023-01-10T14:21:29.736Z,98674.06
2023-01-10T14:23:56.869Z,98668.63
2023-01-10T14:26:44.419Z,98665.92
2023-01-10T14:29:15.850Z,98661.00
2023-01-10T14:31:43.602Z,98669.47
2023-01-10T14:34:10.888Z,98670.14
2023-01-10T14:36:54.005Z,98669.27
2023-01-10T14:39:21.567Z,98659.77
2023-01-10T14:41:52.459Z,98659.77
2023-01-10T14:44:32.967Z,98670.45
2023-01-10T14:47:20.347Z,98669.73
2023-01-10T14:49:58.687Z,98676.98
2023-01-10T14:52:28.507Z,98680.36
2023-01-10T14:55:12.554Z,98674.80
2023-01-10T14:57:39.602Z,98678.89
2023-01-10T15:00:14.659Z,98674.66
2023-01-10T15:02:46.649Z,98676.48
2023-01-10T15:05:19.925Z,98678.33
2023-01-10T15:07:50.022Z,98683.73
2023-01-10T15:10:27.806Z,98684.05
2023-01-10T15:12:56.007Z,98687.10
2023-01-10T15:15:24.770Z,98688.14
2023-01-10T15:17:51.807Z,98694.42
2023-01-10T15:20:18.793Z,98697.80
2023-01-10T15:22:55.788Z,98697.44
2023-01-10T15:25:27.115Z,98700.64
2023-01-10T15:27:54.029Z,98702.81
2023-01-10T15:30:21.585Z,98704.50
2023-01-10T15:32:49.668Z,98700.08
2023-01-10T15:35:20.645Z,98699.55
2023-01-10T15:37:52.001Z,98700.77
2023-01-10T15:40:22.884Z,98702.77
2023-01-10T15:42:49.729Z,98703.65
2023-01-10T15:45:30.722Z,98710.11
2023-01-10T15:48:03.933Z,98713.66
2023-01-10T15:50:32.212Z,98714.50
2023-01-10T15:53:01.063Z,98717.34
2023-01-10T15:55:44.792Z,98717.70
2023-01-10T15:58:16.084Z,98715.84
2023-01-10T16:00:43.833Z,98716.35
2023-01-10T16:03:15.169Z,98719.89
2023-01-10T16:05:49.361Z,98723.61
2023-01-10T16:08:16.285Z,98734.08
2023-01-10T16:10:43.412Z,98723.74
2023-01-10T16:13:28.940Z,98726.10
2023-01-10T16:15:56.570Z,98722.71
2023-01-10T16:18:23.643Z,98736.27
2023-01-10T16:20:54.309Z,98738.45
2023-01-10T16:23:25.432Z,98738.11
2023-01-10T16:25:53.408Z,98734.55
2023-01-10T16:28:20.793Z,98738.77
2023-01-10T16:30:48.200Z,98741.33
2023-01-10T16:33:25.044Z,98742.52
2023-01-10T16:35:52.573Z,98734.17
2023-01-10T16:38:19.788Z,98738.02
2023-01-10T16:40:49.799Z,98738.52
2023-01-10T16:43:21.517Z,98741.73
2023-01-10T16:45:49.584Z,98733.77
2023-01-10T16:48:17.597Z,98729.18
2023-01-10T16:50:44.745Z,98725.31
2023-01-10T16:53:15.588Z,98733.42
2023-01-10T16:55:44.080Z,98729.34
2023-01-10T16:58:11.563Z,98738.80
2023-01-10T17:00:39.108Z,98739.63
2023-01-10T17:03:06.940Z,98746.89
2023-01-10T17:05:34.498Z,98750.74
2023-01-10T17:08:01.519Z,98748.52
2023-01-10T17:10:28.293Z,98746.30
2023-01-10T17:12:55.334Z,98744.92
2023-01-10T17:15:26.094Z,98743.70
2023-01-10T17:17:53.227Z,98744.20
2023-01-10T17:20:20.565Z,98743.80
2023-01-10T17:22:47.712Z,98747.83
2023-01-10T17:25:16.198Z,98745.77
2023-01-10T17:27:43.661Z,98753.57
2023-01-10T17:30:11.006Z,98754.36
2023-01-10T17:32:38.167Z,98759.59
2023-01-10T17:35:05.463Z,98756.35
2023-01-10T17:37:32.454Z,98759.54
2023-01-10T17:39:59.604Z,98765.77
2023-01-10T17:42:26.467Z,98767.77
2023-01-10T17:44:53.710Z,98768.77
2023-01-10T17:47:20.708Z,98761.80
2023-01-10T17:49:47.589Z,98765.49
2023-01-10T17:52:14.644Z,98769.21
2023-01-10T17:54:41.990Z,98771.56
2023-01-10T17:57:09.252Z,98780.20
2023-01-10T17:59:36.826Z,98778.63
2023-01-10T18:02:04.453Z,98785.89
2023-01-10T18:04:31.714Z,98785.36
2023-01-10T18:06:58.671Z,98778.40
2023-01-10T18:09:25.955Z,98783.65
2023-01-10T18:11:52.968Z,98766.84
2023-01-10T18:14:38.445Z,98773.95
2023-01-10T18:17:09.430Z,98776.30
2023-01-10T18:19:36.730Z,98782.89
2023-01-10T18:22:24.158Z,98787.43
2023-01-10T18:24:52.221Z,98792.48
2023-01-10T18:27:22.136Z,98794.66
2023-01-10T18:32:39.885Z,98802.26
2023-01-10T18:35:07.077Z,98798.66
2023-01-10T18:37:34.676Z,98805.59
2023-01-10T18:40:01.572Z,98799.27
2023-01-10T18:42:28.588Z,98807.25
2023-01-10T18:44:55.373Z,98801.98
2023-01-10T18:47:22.265Z,98810.13
2023-01-10T18:49:49.146Z,98807.55
2023-01-10T18:52:16.975Z,98802.44
2023-01-10T18:54:43.780Z,98801.20
2023-01-10T18:57:10.582Z,98810.70
2023-01-10T18:59:38.120Z,98811.36
2023-01-10T19:02:05.143Z,98812.69
2023-01-10T19:04:32.215Z,98807.95
2023-01-10T19:06:59.092Z,98814.23
2023-01-10T19:09:26.103Z,98809.45
2023-01-10T19:11:53.158Z,98813.49
2023-01-10T19:14:20.102Z,98814.64
2023-01-10T19:16:47.094Z,98809.86
2023-01-10T19:19:14.391Z,98811.03
2023-01-10T19:21:42.462Z,98816.73
2023-01-10T19:24:17.907Z,98817.58
2023-01-10T19:26:44.759Z,98821.60
2023-01-10T19:29:11.658Z,98820.92
2023-01-10T19:31:38.716Z,98833.48
2023-01-10T19:34:05.900Z,98838.23
2023-01-10T19:36:34.907Z,98838.02
2023-01-10T19:39:01.981Z,98835.11
2023-01-10T19:41:29.025Z,98839.69
2023-01-10T19:43:57.361Z,98844.61
2023-01-10T19:46:24.799Z,98839.50
2023-01-10T19:48:51.957Z,98843.91
2023-01-10T19:51:18.761Z,98845.09
2023-01-10T19:53:48.641Z,98848.14
2023-01-10T19:56:23.339Z,98855.09
2023-01-10T19:58:50.981Z,98857.80
2023-01-10T20:01:19.857Z,98855.25
2023-01-10T20:03:47.886Z,98861.19
2023-01-10T20:06:20.177Z,98865.09
2023-01-10T20:08:47.703Z,98859.16
2023-01-10T20:11:15.041Z,98862.41
2023-01-10T20:13:45.657Z,98863.28
2023-01-10T20:16:13.262Z,98870.40
2023-01-10T20:18:40.324Z,98868.32
2023-01-10T20:21:07.851Z,98877.83
2023-01-10T20:23:35.519Z,98874.95
2023-01-10T20:26:02.663Z,98878.70
2023-01-10T20:28:30.184Z,98874.11
2023-01-10T20:30:57.187Z,98886.48
2023-01-10T20:33:26.764Z,98884.78
2023-01-10T20:36:06.911Z,98882.58
2023-01-10T20:38:34.371Z,98890.20
2023-01-10T20:41:03.271Z,98890.86
2023-01-10T20:43:30.414Z,98893.10
2023-01-10T20:45:57.453Z,98895.31
2023-01-10T20:48:24.276Z,98894.13
2023-01-10T20:50:51.254Z,98900.95
2023-01-10T20:53:21.262Z,98901.28
2023-01-10T20:55:59.049Z,98910.10
2023-01-10T20:58:26.955Z,98914.65
2023-01-10T21:01:25.018Z,98918.21
2023-01-10T21:04:00.164Z,98921.79
2023-01-10T21:06:27.201Z,98925.70
2023-01-10T21:08:54.374Z,98941.30
2023-01-10T21:11:24.260Z,98945.05
2023-01-10T21:13:51.398Z,98937.41
2023-01-10T21:16:19.878Z,98940.63
2023-01-10T21:18:47.346Z,98944.84
2023-01-10T21:21:15.337Z,98949.09
2023-01-10T21:23:42.466Z,98945.04
2023-01-10T21:28:57.745Z,98950.52
2023-01-10T21:31:24.840Z,98949.50
2023-01-10T21:33:52.155Z,98953.40
2023-01-10T21:36:19.133Z,98955.95
2023-01-10T21:38:46.130Z,98981.75
2023-01-10T21:41:13.954Z,98976.16
2023-01-10T21:43:44.742Z,98985.20
2023-01-10T21:46:12.198Z,98987.08
2023-01-10T21:48:39.077Z,98977.25
2023-01-10T21:51:06.818Z,98977.63
2023-01-10T21:53:33.790Z,99002.25
2023-01-10T21:56:00.990Z,98990.05
2023-01-10T21:58:27.883Z,98993.83
2023-01-10T22:00:56.507Z,98990.12
2023-01-10T22:03:23.698Z,98986.24
2023-01-10T22:05:51.754Z,98990.49
2023-01-10T22:08:18.692Z,98984.23
2023-01-10T22:10:45.526Z,98987.73
2023-01-10T22:13:12.678Z,98985.20
2023-01-10T22:15:41.398Z,98990.28
2023-01-10T22:18:08.928Z,98997.21
2023-01-10T22:20:36.073Z,98987.23
2023-01-10T22:23:03.727Z,99001.83
2023-01-10T22:25:30.683Z,98997.25
2023-01-10T22:27:57.732Z,98987.13
2023-01-10T22:30:24.666Z,98991.23
2023-01-10T22:32:54.722Z,98990.77
2023-01-10T22:35:21.610Z,98988.55
2023-01-10T22:37:52.974Z,98988.71
2023-01-10T22:40:19.810Z,99004.30
2023-01-10T22:42:49.371Z,99005.98
2023-01-10T22:45:16.230Z,99012.92
2023-01-10T22:47:43.039Z,99000.88
2023-01-10T22:50:10.126Z,99004.25
2023-01-10T22:52:36.852Z,98998.80
2023-01-10T22:55:04.221Z,99003.52
2023-01-10T22:57:33.198Z,99005.22
2023-01-10T23:00:19.366Z,99008.27
2023-01-10T23:02:46.401Z,99008.63
2023-01-10T23:09:37.619Z,99012.65
2023-01-10T23:20:58.768Z,99009.30
2023-01-10T23:27:49.555Z,99014.21
2023-01-10T23:34:34.545Z,99012.57
2023-01-10T23:41:22.482Z,99018.77
2023-01-10T23:48:07.379Z,99024.40
2023-01-10T23:54:53.533Z,99019.84
